sensor_id;sensor_type;location;lat;lon;timestamp;P1;durP1;ratioP1;P2;durP2;ratioP2
15067;SDS011;7633;60.024;18.770;2022-10-22T00:01:26;2.37;;;2.17;;
15067;SDS011;7633;60.024;18.770;2022-10-22T00:03:52;3.93;;;2.40;;
15067;SDS011;7633;60.024;18.770;2022-10-22T00:06:18;2.83;;;2.40;;
15067;SDS011;7633;60.024;18.770;2022-10-22T00:08:43;2.30;;;2.10;;
15067;SDS011;7633;60.024;18.770;2022-10-22T00:11:09;2.37;;;2.17;;
15067;SDS011;7633;60.024;18.770;2022-10-22T00:13:36;3.07;;;1.90;;
15067;SDS011;7633;60.024;18.770;2022-10-22T00:16:01;1.50;;;1.40;;
15067;SDS011;7633;60.024;18.770;2022-10-22T00:18:26;1.53;;;1.43;;
15067;SDS011;7633;60.024;18.770;2022-10-22T00:20:52;2.03;;;1.80;;
15067;SDS011;7633;60.024;18.770;2022-10-22T00:23:17;1.53;;;1.30;;
15067;SDS011;7633;60.024;18.770;2022-10-22T00:25:43;3.20;;;1.50;;
15067;SDS011;7633;60.024;18.770;2022-10-22T00:28:08;1.47;;;1.20;;
15067;SDS011;7633;60.024;18.770;2022-10-22T00:30:35;3.73;;;1.60;;
15067;SDS011;7633;60.024;18.770;2022-10-22T00:33:01;2.87;;;1.50;;
15067;SDS011;7633;60.024;18.770;2022-10-22T00:35:26;2.67;;;2.47;;
15067;SDS011;7633;60.024;18.770;2022-10-22T00:37:52;2.63;;;1.87;;
15067;SDS011;7633;60.024;18.770;2022-10-22T00:40:17;3.03;;;1.30;;
15067;SDS011;7633;60.024;18.770;2022-10-22T00:42:42;1.83;;;1.50;;
15067;SDS011;7633;60.024;18.770;2022-10-22T00:50:03;2.17;;;1.50;;
15067;SDS011;7633;60.024;18.770;2022-10-22T00:52:29;1.90;;;1.67;;
15067;SDS011;7633;60.024;18.770;2022-10-22T00:54:54;2.07;;;1.70;;
15067;SDS011;7633;60.024;18.770;2022-10-22T00:57:20;2.00;;;1.80;;
15067;SDS011;7633;60.024;18.770;2022-10-22T00:59:46;1.87;;;1.60;;
15067;SDS011;7633;60.024;18.770;2022-10-22T01:02:12;1.90;;;1.70;;
15067;SDS011;7633;60.024;18.770;2022-10-22T01:04:38;2.80;;;1.50;;
15067;SDS011;7633;60.024;18.770;2022-10-22T01:07:04;1.90;;;1.67;;
15067;SDS011;7633;60.024;18.770;2022-10-22T01:31:13;3.77;;;1.77;;
15067;SDS011;7633;60.024;18.770;2022-10-22T01:33:40;3.37;;;1.40;;
15067;SDS011;7633;60.024;18.770;2022-10-22T01:36:06;2.20;;;2.00;;
15067;SDS011;7633;60.024;18.770;2022-10-22T01:38:32;2.73;;;1.70;;
15067;SDS011;7633;60.024;18.770;2022-10-22T01:40:58;2.10;;;1.90;;
15067;SDS011;7633;60.024;18.770;2022-10-22T01:43:24;2.03;;;1.83;;
15067;SDS011;7633;60.024;18.770;2022-10-22T01:45:55;2.10;;;1.87;;
15067;SDS011;7633;60.024;18.770;2022-10-22T01:51:17;3.80;;;1.87;;
15067;SDS011;7633;60.024;18.770;2022-10-22T01:56:29;1.70;;;1.60;;
15067;SDS011;7633;60.024;18.770;2022-10-22T02:06:24;2.00;;;1.67;;
15067;SDS011;7633;60.024;18.770;2022-10-22T02:08:50;1.60;;;1.50;;
15067;SDS011;7633;60.024;18.770;2022-10-22T02:11:16;3.53;;;1.50;;
15067;SDS011;7633;60.024;18.770;2022-10-22T02:13:43;2.07;;;1.90;;
15067;SDS011;7633;60.024;18.770;2022-10-22T02:16:11;2.27;;;2.07;;
15067;SDS011;7633;60.024;18.770;2022-10-22T02:18:39;2.30;;;1.93;;
15067;SDS011;7633;60.024;18.770;2022-10-22T02:21:05;1.70;;;1.60;;
15067;SDS011;7633;60.024;18.770;2022-10-22T02:23:31;2.00;;;1.80;;
15067;SDS011;7633;60.024;18.770;2022-10-22T02:26:01;3.57;;;1.97;;
15067;SDS011;7633;60.024;18.770;2022-10-22T02:31:01;2.03;;;1.57;;
15067;SDS011;7633;60.024;18.770;2022-10-22T02:33:30;5.23;;;1.80;;
15067;SDS011;7633;60.024;18.770;2022-10-22T02:35:58;1.90;;;1.47;;
15067;SDS011;7633;60.024;18.770;2022-10-22T02:38:24;2.73;;;1.33;;
15067;SDS011;7633;60.024;18.770;2022-10-22T02:40:51;2.30;;;1.97;;
15067;SDS011;7633;60.024;18.770;2022-10-22T02:43:16;4.03;;;1.90;;
15067;SDS011;7633;60.024;18.770;2022-10-22T02:45:42;1.87;;;1.50;;
15067;SDS011;7633;60.024;18.770;2022-10-22T02:48:07;2.27;;;1.33;;
15067;SDS011;7633;60.024;18.770;2022-10-22T02:50:33;2.60;;;1.20;;
15067;SDS011;7633;60.024;18.770;2022-10-22T02:52:58;1.30;;;1.20;;
15067;SDS011;7633;60.024;18.770;2022-10-22T02:55:23;2.90;;;1.33;;
15067;SDS011;7633;60.024;18.770;2022-10-22T02:57:49;3.13;;;1.53;;
15067;SDS011;7633;60.024;18.770;2022-10-22T03:00:14;2.53;;;1.60;;
15067;SDS011;7633;60.024;18.770;2022-10-22T03:02:40;1.67;;;1.57;;
15067;SDS011;7633;60.024;18.770;2022-10-22T03:05:05;1.33;;;1.23;;
15067;SDS011;7633;60.024;18.770;2022-10-22T03:07:31;2.93;;;1.50;;
15067;SDS011;7633;60.024;18.770;2022-10-22T03:09:56;2.43;;;1.40;;
15067;SDS011;7633;60.024;18.770;2022-10-22T03:12:22;1.40;;;1.27;;
15067;SDS011;7633;60.024;18.770;2022-10-22T03:14:47;1.57;;;1.47;;
15067;SDS011;7633;60.024;18.770;2022-10-22T03:17:13;2.60;;;1.30;;
15067;SDS011;7633;60.024;18.770;2022-10-22T03:19:38;1.37;;;1.27;;
15067;SDS011;7633;60.024;18.770;2022-10-22T03:22:05;1.47;;;1.13;;
15067;SDS011;7633;60.024;18.770;2022-10-22T03:24:35;1.63;;;1.20;;
15067;SDS011;7633;60.024;18.770;2022-10-22T03:27:01;4.43;;;1.50;;
15067;SDS011;7633;60.024;18.770;2022-10-22T03:29:27;1.40;;;1.30;;
15067;SDS011;7633;60.024;18.770;2022-10-22T03:31:53;2.60;;;1.33;;
15067;SDS011;7633;60.024;18.770;2022-10-22T03:34:19;1.30;;;1.20;;
15067;SDS011;7633;60.024;18.770;2022-10-22T03:36:44;2.17;;;1.43;;
15067;SDS011;7633;60.024;18.770;2022-10-22T03:39:10;1.53;;;1.40;;
15067;SDS011;7633;60.024;18.770;2022-10-22T03:41:37;2.47;;;1.47;;
15067;SDS011;7633;60.024;18.770;2022-10-22T03:44:03;3.53;;;1.43;;
15067;SDS011;7633;60.024;18.770;2022-10-22T03:46:29;1.40;;;1.30;;
15067;SDS011;7633;60.024;18.770;2022-10-22T03:48:54;1.37;;;1.27;;
15067;SDS011;7633;60.024;18.770;2022-10-22T03:51:20;1.57;;;1.30;;
15067;SDS011;7633;60.024;18.770;2022-10-22T03:53:45;2.57;;;1.47;;
15067;SDS011;7633;60.024;18.770;2022-10-22T03:56:11;1.50;;;1.40;;
15067;SDS011;7633;60.024;18.770;2022-10-22T03:58:37;2.87;;;1.40;;
15067;SDS011;7633;60.024;18.770;2022-10-22T04:01:06;1.60;;;1.47;;
15067;SDS011;7633;60.024;18.770;2022-10-22T04:03:32;3.83;;;1.67;;
15067;SDS011;7633;60.024;18.770;2022-10-22T04:06:01;2.33;;;1.63;;
15067;SDS011;7633;60.024;18.770;2022-10-22T04:08:27;1.63;;;1.50;;
15067;SDS011;7633;60.024;18.770;2022-10-22T04:10:52;1.57;;;1.30;;
15067;SDS011;7633;60.024;18.770;2022-10-22T04:13:18;2.00;;;1.90;;
15067;SDS011;7633;60.024;18.770;2022-10-22T04:15:43;1.80;;;1.47;;
15067;SDS011;7633;60.024;18.770;2022-10-22T04:18:09;2.43;;;1.40;;
15067;SDS011;7633;60.024;18.770;2022-10-22T04:20:34;1.60;;;1.50;;
15067;SDS011;7633;60.024;18.770;2022-10-22T04:22:59;2.43;;;1.40;;
15067;SDS011;7633;60.024;18.770;2022-10-22T04:25:25;2.03;;;1.23;;
15067;SDS011;7633;60.024;18.770;2022-10-22T04:27:50;1.50;;;1.33;;
15067;SDS011;7633;60.024;18.770;2022-10-22T04:30:16;2.37;;;1.57;;
15067;SDS011;7633;60.024;18.770;2022-10-22T04:32:41;2.07;;;1.77;;
15067;SDS011;7633;60.024;18.770;2022-10-22T04:35:07;2.13;;;1.50;;
15067;SDS011;7633;60.024;18.770;2022-10-22T04:37:32;2.40;;;1.50;;
15067;SDS011;7633;60.024;18.770;2022-10-22T04:39:58;1.70;;;1.20;;
15067;SDS011;7633;60.024;18.770;2022-10-22T04:42:23;1.77;;;1.37;;
15067;SDS011;7633;60.024;18.770;2022-10-22T04:44:49;2.53;;;1.33;;
15067;SDS011;7633;60.024;18.770;2022-10-22T04:47:14;2.23;;;1.20;;
15067;SDS011;7633;60.024;18.770;2022-10-22T04:49:40;2.07;;;1.50;;
15067;SDS011;7633;60.024;18.770;2022-10-22T04:52:05;3.50;;;1.30;;
15067;SDS011;7633;60.024;18.770;2022-10-22T04:54:31;1.90;;;1.40;;
15067;SDS011;7633;60.024;18.770;2022-10-22T04:56:56;1.97;;;1.30;;
15067;SDS011;7633;60.024;18.770;2022-10-22T04:59:21;2.80;;;1.60;;
15067;SDS011;7633;60.024;18.770;2022-10-22T05:01:47;1.47;;;1.20;;
15067;SDS011;7633;60.024;18.770;2022-10-22T05:04:13;1.60;;;1.50;;
15067;SDS011;7633;60.024;18.770;2022-10-22T05:06:39;2.10;;;1.57;;
15067;SDS011;7633;60.024;18.770;2022-10-22T05:09:06;3.60;;;1.80;;
15067;SDS011;7633;60.024;18.770;2022-10-22T05:11:33;1.90;;;1.70;;
15067;SDS011;7633;60.024;18.770;2022-10-22T05:13:59;2.03;;;1.73;;
15067;SDS011;7633;60.024;18.770;2022-10-22T05:16:25;2.07;;;1.80;;
15067;SDS011;7633;60.024;18.770;2022-10-22T05:18:53;1.77;;;1.67;;
15067;SDS011;7633;60.024;18.770;2022-10-22T05:21:19;2.33;;;1.60;;
15067;SDS011;7633;60.024;18.770;2022-10-22T05:23:45;2.63;;;1.53;;
15067;SDS011;7633;60.024;18.770;2022-10-22T05:26:12;1.50;;;1.40;;
15067;SDS011;7633;60.024;18.770;2022-10-22T05:28:38;1.87;;;1.37;;
15067;SDS011;7633;60.024;18.770;2022-10-22T05:31:04;3.07;;;1.77;;
15067;SDS011;7633;60.024;18.770;2022-10-22T05:33:30;1.90;;;1.70;;
15067;SDS011;7633;60.024;18.770;2022-10-22T05:35:56;1.97;;;1.80;;
15067;SDS011;7633;60.024;18.770;2022-10-22T05:38:21;2.20;;;1.70;;
15067;SDS011;7633;60.024;18.770;2022-10-22T05:40:47;2.07;;;1.93;;
15067;SDS011;7633;60.024;18.770;2022-10-22T05:43:12;3.47;;;1.93;;
15067;SDS011;7633;60.024;18.770;2022-10-22T05:45:38;2.63;;;2.00;;
15067;SDS011;7633;60.024;18.770;2022-10-22T05:48:04;3.10;;;2.47;;
15067;SDS011;7633;60.024;18.770;2022-10-22T05:50:29;4.03;;;3.03;;
15067;SDS011;7633;60.024;18.770;2022-10-22T05:52:55;2.37;;;1.90;;
15067;SDS011;7633;60.024;18.770;2022-10-22T05:55:20;4.50;;;1.50;;
15067;SDS011;7633;60.024;18.770;2022-10-22T05:57:46;2.10;;;1.90;;
15067;SDS011;7633;60.024;18.770;2022-10-22T06:00:13;3.30;;;2.10;;
15067;SDS011;7633;60.024;18.770;2022-10-22T06:02:39;4.13;;;2.40;;
15067;SDS011;7633;60.024;18.770;2022-10-22T06:05:04;3.17;;;2.87;;
15067;SDS011;7633;60.024;18.770;2022-10-22T06:07:29;3.83;;;2.23;;
15067;SDS011;7633;60.024;18.770;2022-10-22T06:09:55;2.70;;;2.37;;
15067;SDS011;7633;60.024;18.770;2022-10-22T06:12:20;2.50;;;2.10;;
15067;SDS011;7633;60.024;18.770;2022-10-22T06:14:46;2.17;;;1.97;;
15067;SDS011;7633;60.024;18.770;2022-10-22T06:17:11;2.30;;;1.90;;
15067;SDS011;7633;60.024;18.770;2022-10-22T06:19:37;2.77;;;1.93;;
15067;SDS011;7633;60.024;18.770;2022-10-22T06:22:03;2.17;;;1.90;;
15067;SDS011;7633;60.024;18.770;2022-10-22T06:24:28;3.30;;;1.63;;
15067;SDS011;7633;60.024;18.770;2022-10-22T06:26:54;2.33;;;1.70;;
15067;SDS011;7633;60.024;18.770;2022-10-22T06:29:19;2.90;;;2.03;;
15067;SDS011;7633;60.024;18.770;2022-10-22T06:31:45;2.30;;;2.10;;
15067;SDS011;7633;60.024;18.770;2022-10-22T06:34:11;2.23;;;2.03;;
15067;SDS011;7633;60.024;18.770;2022-10-22T06:36:36;3.97;;;2.90;;
15067;SDS011;7633;60.024;18.770;2022-10-22T06:39:02;4.17;;;2.17;;
15067;SDS011;7633;60.024;18.770;2022-10-22T06:41:28;4.07;;;2.07;;
15067;SDS011;7633;60.024;18.770;2022-10-22T06:43:53;2.13;;;1.90;;
15067;SDS011;7633;60.024;18.770;2022-10-22T06:46:20;2.10;;;1.90;;
15067;SDS011;7633;60.024;18.770;2022-10-22T06:48:50;2.63;;;2.27;;
15067;SDS011;7633;60.024;18.770;2022-10-22T06:51:15;3.07;;;2.50;;
15067;SDS011;7633;60.024;18.770;2022-10-22T06:53:41;2.27;;;2.07;;
15067;SDS011;7633;60.024;18.770;2022-10-22T06:56:10;4.57;;;2.70;;
15067;SDS011;7633;60.024;18.770;2022-10-22T06:58:36;2.67;;;2.40;;
15067;SDS011;7633;60.024;18.770;2022-10-22T07:01:09;5.43;;;2.97;;
15067;SDS011;7633;60.024;18.770;2022-10-22T07:03:35;2.63;;;2.40;;
15067;SDS011;7633;60.024;18.770;2022-10-22T07:06:01;2.57;;;2.33;;
15067;SDS011;7633;60.024;18.770;2022-10-22T07:08:26;4.20;;;2.57;;
15067;SDS011;7633;60.024;18.770;2022-10-22T07:10:52;3.20;;;2.90;;
15067;SDS011;7633;60.024;18.770;2022-10-22T07:13:17;2.97;;;2.77;;
15067;SDS011;7633;60.024;18.770;2022-10-22T07:15:43;3.13;;;2.93;;
15067;SDS011;7633;60.024;18.770;2022-10-22T07:18:08;5.07;;;3.43;;
15067;SDS011;7633;60.024;18.770;2022-10-22T07:20:33;3.63;;;3.10;;
15067;SDS011;7633;60.024;18.770;2022-10-22T07:22:59;4.93;;;3.50;;
15067;SDS011;7633;60.024;18.770;2022-10-22T07:25:24;4.40;;;3.80;;
15067;SDS011;7633;60.024;18.770;2022-10-22T07:27:50;3.77;;;3.20;;
15067;SDS011;7633;60.024;18.770;2022-10-22T07:30:16;3.80;;;3.33;;
15067;SDS011;7633;60.024;18.770;2022-10-22T07:32:42;3.13;;;2.47;;
15067;SDS011;7633;60.024;18.770;2022-10-22T07:35:07;2.97;;;2.53;;
15067;SDS011;7633;60.024;18.770;2022-10-22T07:37:32;2.87;;;2.63;;
15067;SDS011;7633;60.024;18.770;2022-10-22T07:39:58;4.70;;;3.00;;
15067;SDS011;7633;60.024;18.770;2022-10-22T07:42:23;2.60;;;2.40;;
15067;SDS011;7633;60.024;18.770;2022-10-22T07:44:49;3.00;;;2.70;;
15067;SDS011;7633;60.024;18.770;2022-10-22T07:47:14;2.93;;;2.70;;
15067;SDS011;7633;60.024;18.770;2022-10-22T07:49:39;3.57;;;3.27;;
15067;SDS011;7633;60.024;18.770;2022-10-22T07:52:05;4.17;;;3.87;;
15067;SDS011;7633;60.024;18.770;2022-10-22T07:54:31;4.13;;;3.77;;
15067;SDS011;7633;60.024;18.770;2022-10-22T07:56:57;4.17;;;3.77;;
15067;SDS011;7633;60.024;18.770;2022-10-22T07:59:22;4.00;;;3.70;;
15067;SDS011;7633;60.024;18.770;2022-10-22T08:01:48;3.60;;;3.30;;
15067;SDS011;7633;60.024;18.770;2022-10-22T08:04:13;3.77;;;3.30;;
15067;SDS011;7633;60.024;18.770;2022-10-22T08:06:38;3.17;;;2.87;;
15067;SDS011;7633;60.024;18.770;2022-10-22T08:09:04;3.70;;;3.33;;
15067;SDS011;7633;60.024;18.770;2022-10-22T08:11:29;3.67;;;3.33;;
15067;SDS011;7633;60.024;18.770;2022-10-22T08:13:57;4.10;;;3.70;;
15067;SDS011;7633;60.024;18.770;2022-10-22T08:16:26;3.53;;;3.17;;
15067;SDS011;7633;60.024;18.770;2022-10-22T08:18:51;3.30;;;3.00;;
15067;SDS011;7633;60.024;18.770;2022-10-22T08:21:17;6.07;;;3.43;;
15067;SDS011;7633;60.024;18.770;2022-10-22T08:23:44;3.47;;;2.70;;
15067;SDS011;7633;60.024;18.770;2022-10-22T08:26:09;4.10;;;3.70;;
15067;SDS011;7633;60.024;18.770;2022-10-22T08:28:35;4.27;;;3.57;;
15067;SDS011;7633;60.024;18.770;2022-10-22T08:31:04;3.70;;;3.40;;
15067;SDS011;7633;60.024;18.770;2022-10-22T08:33:31;3.67;;;3.10;;
15067;SDS011;7633;60.024;18.770;2022-10-22T08:35:56;3.80;;;3.43;;
15067;SDS011;7633;60.024;18.770;2022-10-22T08:38:22;3.60;;;3.20;;
15067;SDS011;7633;60.024;18.770;2022-10-22T08:40:48;3.17;;;2.70;;
15067;SDS011;7633;60.024;18.770;2022-10-22T08:48:41;3.00;;;2.80;;
15067;SDS011;7633;60.024;18.770;2022-10-22T08:51:09;5.20;;;3.50;;
15067;SDS011;7633;60.024;18.770;2022-10-22T08:53:38;3.50;;;3.10;;
15067;SDS011;7633;60.024;18.770;2022-10-22T08:56:05;3.80;;;3.07;;
15067;SDS011;7633;60.024;18.770;2022-10-22T08:58:42;3.30;;;2.77;;
15067;SDS011;7633;60.024;18.770;2022-10-22T09:01:13;3.33;;;3.03;;
15067;SDS011;7633;60.024;18.770;2022-10-22T09:06:08;3.77;;;3.07;;
15067;SDS011;7633;60.024;18.770;2022-10-22T09:08:36;4.00;;;3.70;;
15067;SDS011;7633;60.024;18.770;2022-10-22T09:11:49;4.27;;;3.83;;
15067;SDS011;7633;60.024;18.770;2022-10-22T09:13:50;3.93;;;3.63;;
15067;SDS011;7633;60.024;18.770;2022-10-22T09:16:38;5.00;;;3.97;;
15067;SDS011;7633;60.024;18.770;2022-10-22T09:21:51;3.70;;;3.40;;
15067;SDS011;7633;60.024;18.770;2022-10-22T09:26:48;4.70;;;4.30;;
15067;SDS011;7633;60.024;18.770;2022-10-22T09:29:16;4.97;;;4.57;;
15067;SDS011;7633;60.024;18.770;2022-10-22T09:31:43;4.50;;;4.10;;
15067;SDS011;7633;60.024;18.770;2022-10-22T09:34:09;4.83;;;3.90;;
15067;SDS011;7633;60.024;18.770;2022-10-22T09:36:37;4.63;;;4.17;;
15067;SDS011;7633;60.024;18.770;2022-10-22T09:39:03;4.57;;;4.17;;
15067;SDS011;7633;60.024;18.770;2022-10-22T09:41:28;4.33;;;3.93;;
15067;SDS011;7633;60.024;18.770;2022-10-22T09:43:54;5.07;;;4.60;;
15067;SDS011;7633;60.024;18.770;2022-10-22T09:46:21;5.33;;;4.40;;
15067;SDS011;7633;60.024;18.770;2022-10-22T09:48:47;3.70;;;3.40;;
15067;SDS011;7633;60.024;18.770;2022-10-22T09:51:24;4.20;;;3.80;;
15067;SDS011;7633;60.024;18.770;2022-10-22T09:54:00;4.10;;;3.70;;
15067;SDS011;7633;60.024;18.770;2022-10-22T09:58:59;3.77;;;3.47;;
15067;SDS011;7633;60.024;18.770;2022-10-22T10:01:26;4.13;;;3.43;;
15067;SDS011;7633;60.024;18.770;2022-10-22T10:03:52;4.80;;;3.63;;
15067;SDS011;7633;60.024;18.770;2022-10-22T10:06:21;9.10;;;6.90;;
15067;SDS011;7633;60.024;18.770;2022-10-22T10:08:47;17.87;;;16.07;;
15067;SDS011;7633;60.024;18.770;2022-10-22T10:11:22;15.60;;;13.97;;
15067;SDS011;7633;60.024;18.770;2022-10-22T10:13:53;16.90;;;15.17;;
15067;SDS011;7633;60.024;18.770;2022-10-22T10:21:38;4.43;;;4.03;;
15067;SDS011;7633;60.024;18.770;2022-10-22T10:26:37;4.20;;;3.80;;
15067;SDS011;7633;60.024;18.770;2022-10-22T10:34:11;6.20;;;5.60;;
15067;SDS011;7633;60.024;18.770;2022-10-22T10:39:29;15.90;;;10.20;;
15067;SDS011;7633;60.024;18.770;2022-10-22T10:41:59;9.50;;;8.50;;
15067;SDS011;7633;60.024;18.770;2022-10-22T10:47:59;10.67;;;8.53;;
15067;SDS011;7633;60.024;18.770;2022-10-22T10:49:49;8.90;;;8.00;;
15067;SDS011;7633;60.024;18.770;2022-10-22T10:52:30;8.93;;;7.17;;
15067;SDS011;7633;60.024;18.770;2022-10-22T11:00:17;9.60;;;7.73;;
15067;SDS011;7633;60.024;18.770;2022-10-22T11:07:44;7.23;;;6.53;;
15067;SDS011;7633;60.024;18.770;2022-10-22T11:12:43;10.83;;;7.63;;
15067;SDS011;7633;60.024;18.770;2022-10-22T11:17:39;8.03;;;7.23;;
15067;SDS011;7633;60.024;18.770;2022-10-22T11:20:17;7.13;;;6.27;;
15067;SDS011;7633;60.024;18.770;2022-10-22T11:25:33;5.60;;;5.03;;
15067;SDS011;7633;60.024;18.770;2022-10-22T11:28:07;7.70;;;6.43;;
15067;SDS011;7633;60.024;18.770;2022-10-22T11:30:34;7.63;;;6.27;;
15067;SDS011;7633;60.024;18.770;2022-10-22T11:33:02;7.47;;;5.87;;
15067;SDS011;7633;60.024;18.770;2022-10-22T11:35:33;6.10;;;5.60;;
15067;SDS011;7633;60.024;18.770;2022-10-22T11:37:58;6.43;;;5.83;;
15067;SDS011;7633;60.024;18.770;2022-10-22T11:41:12;6.90;;;6.17;;
15067;SDS011;7633;60.024;18.770;2022-10-22T11:43:11;6.20;;;5.60;;
15067;SDS011;7633;60.024;18.770;2022-10-22T11:45:49;7.10;;;6.47;;
15067;SDS011;7633;60.024;18.770;2022-10-22T11:48:20;7.87;;;7.17;;
15067;SDS011;7633;60.024;18.770;2022-10-22T11:53:34;7.43;;;6.73;;
15067;SDS011;7633;60.024;18.770;2022-10-22T12:00:54;7.37;;;6.63;;
15067;SDS011;7633;60.024;18.770;2022-10-22T12:03:36;6.50;;;5.90;;
15067;SDS011;7633;60.024;18.770;2022-10-22T12:06:07;7.20;;;6.37;;
15067;SDS011;7633;60.024;18.770;2022-10-22T12:09:01;7.30;;;6.60;;
15067;SDS011;7633;60.024;18.770;2022-10-22T12:11:27;6.20;;;5.57;;
15067;SDS011;7633;60.024;18.770;2022-10-22T12:16:50;5.90;;;5.33;;
15067;SDS011;7633;60.024;18.770;2022-10-22T12:19:25;6.57;;;5.80;;
15067;SDS011;7633;60.024;18.770;2022-10-22T12:21:52;6.37;;;5.30;;
15067;SDS011;7633;60.024;18.770;2022-10-22T12:24:19;6.20;;;5.57;;
15067;SDS011;7633;60.024;18.770;2022-10-22T12:26:45;6.23;;;5.43;;
15067;SDS011;7633;60.024;18.770;2022-10-22T12:29:12;5.83;;;5.27;;
15067;SDS011;7633;60.024;18.770;2022-10-22T12:31:39;6.20;;;5.60;;
15067;SDS011;7633;60.024;18.770;2022-10-22T12:34:05;5.67;;;5.17;;
15067;SDS011;7633;60.024;18.770;2022-10-22T12:36:32;7.13;;;5.20;;
15067;SDS011;7633;60.024;18.770;2022-10-22T12:38:58;5.37;;;4.93;;
15067;SDS011;7633;60.024;18.770;2022-10-22T12:41:34;5.93;;;5.43;;
15067;SDS011;7633;60.024;18.770;2022-10-22T12:44:01;5.80;;;5.17;;
15067;SDS011;7633;60.024;18.770;2022-10-22T12:46:27;5.50;;;5.00;;
15067;SDS011;7633;60.024;18.770;2022-10-22T12:48:54;7.10;;;5.37;;
15067;SDS011;7633;60.024;18.770;2022-10-22T12:51:20;6.03;;;5.37;;
15067;SDS011;7633;60.024;18.770;2022-10-22T12:53:52;5.33;;;4.83;;
15067;SDS011;7633;60.024;18.770;2022-10-22T12:56:22;6.50;;;5.33;;
15067;SDS011;7633;60.024;18.770;2022-10-22T12:58:59;5.37;;;4.83;;
15067;SDS011;7633;60.024;18.770;2022-10-22T13:01:26;7.40;;;5.33;;
15067;SDS011;7633;60.024;18.770;2022-10-22T13:04:04;5.83;;;5.23;;
15067;SDS011;7633;60.024;18.770;2022-10-22T13:06:32;6.10;;;5.27;;
15067;SDS011;7633;60.024;18.770;2022-10-22T13:11:33;5.03;;;4.63;;
15067;SDS011;7633;60.024;18.770;2022-10-22T13:14:33;5.57;;;4.70;;
15067;SDS011;7633;60.024;18.770;2022-10-22T13:17:04;5.20;;;4.70;;
15067;SDS011;7633;60.024;18.770;2022-10-22T13:24:48;5.67;;;5.17;;
15067;SDS011;7633;60.024;18.770;2022-10-22T13:27:15;6.70;;;5.63;;
15067;SDS011;7633;60.024;18.770;2022-10-22T13:29:40;6.33;;;5.73;;
15067;SDS011;7633;60.024;18.770;2022-10-22T13:32:17;9.20;;;7.97;;
15067;SDS011;7633;60.024;18.770;2022-10-22T13:34:48;12.70;;;9.33;;
15067;SDS011;7633;60.024;18.770;2022-10-22T13:37:13;10.70;;;9.70;;
15067;SDS011;7633;60.024;18.770;2022-10-22T13:39:39;10.43;;;8.47;;
15067;SDS011;7633;60.024;18.770;2022-10-22T13:42:10;8.87;;;7.40;;
15067;SDS011;7633;60.024;18.770;2022-10-22T13:44:35;9.17;;;7.53;;
15067;SDS011;7633;60.024;18.770;2022-10-22T13:47:01;7.97;;;7.10;;
15067;SDS011;7633;60.024;18.770;2022-10-22T13:49:26;7.23;;;6.33;;
15067;SDS011;7633;60.024;18.770;2022-10-22T13:51:51;6.53;;;5.80;;
15067;SDS011;7633;60.024;18.770;2022-10-22T13:54:19;6.20;;;5.60;;
15067;SDS011;7633;60.024;18.770;2022-10-22T13:56:45;6.93;;;5.90;;
15067;SDS011;7633;60.024;18.770;2022-10-22T13:59:10;5.77;;;5.27;;
15067;SDS011;7633;60.024;18.770;2022-10-22T14:01:36;6.80;;;5.83;;
15067;SDS011;7633;60.024;18.770;2022-10-22T14:04:03;6.23;;;5.60;;
15067;SDS011;7633;60.024;18.770;2022-10-22T14:06:29;6.80;;;6.20;;
15067;SDS011;7633;60.024;18.770;2022-10-22T14:08:56;7.67;;;6.97;;
15067;SDS011;7633;60.024;18.770;2022-10-22T14:11:22;7.80;;;7.10;;
15067;SDS011;7633;60.024;18.770;2022-10-22T14:13:48;8.53;;;7.77;;
15067;SDS011;7633;60.024;18.770;2022-10-22T14:16:18;10.13;;;7.43;;
15067;SDS011;7633;60.024;18.770;2022-10-22T14:18:44;7.73;;;7.03;;
15067;SDS011;7633;60.024;18.770;2022-10-22T14:21:09;8.20;;;7.40;;
15067;SDS011;7633;60.024;18.770;2022-10-22T14:23:36;7.93;;;7.23;;
15067;SDS011;7633;60.024;18.770;2022-10-22T14:26:04;8.87;;;7.93;;
15067;SDS011;7633;60.024;18.770;2022-10-22T14:28:32;8.03;;;6.97;;
15067;SDS011;7633;60.024;18.770;2022-10-22T14:30:58;6.63;;;6.03;;
15067;SDS011;7633;60.024;18.770;2022-10-22T14:33:28;7.23;;;6.47;;
15067;SDS011;7633;60.024;18.770;2022-10-22T14:35:54;7.17;;;6.27;;
15067;SDS011;7633;60.024;18.770;2022-10-22T14:38:20;6.70;;;6.00;;
15067;SDS011;7633;60.024;18.770;2022-10-22T14:40:45;8.20;;;6.80;;
15067;SDS011;7633;60.024;18.770;2022-10-22T14:43:19;7.67;;;6.07;;
15067;SDS011;7633;60.024;18.770;2022-10-22T14:45:45;6.30;;;5.77;;
15067;SDS011;7633;60.024;18.770;2022-10-22T14:48:10;6.40;;;5.80;;
15067;SDS011;7633;60.024;18.770;2022-10-22T14:50:36;6.60;;;6.00;;
15067;SDS011;7633;60.024;18.770;2022-10-22T14:53:01;6.97;;;6.27;;
15067;SDS011;7633;60.024;18.770;2022-10-22T14:55:26;6.90;;;6.20;;
15067;SDS011;7633;60.024;18.770;2022-10-22T14:57:53;6.30;;;5.73;;
15067;SDS011;7633;60.024;18.770;2022-10-22T15:00:19;5.83;;;5.33;;
15067;SDS011;7633;60.024;18.770;2022-10-22T15:02:44;6.60;;;6.00;;
15067;SDS011;7633;60.024;18.770;2022-10-22T15:05:10;6.47;;;5.87;;
15067;SDS011;7633;60.024;18.770;2022-10-22T15:07:36;7.10;;;6.40;;
15067;SDS011;7633;60.024;18.770;2022-10-22T15:10:02;8.13;;;6.70;;
15067;SDS011;7633;60.024;18.770;2022-10-22T15:12:28;6.83;;;6.23;;
15067;SDS011;7633;60.024;18.770;2022-10-22T15:14:54;7.43;;;6.83;;
15067;SDS011;7633;60.024;18.770;2022-10-22T15:17:19;7.70;;;7.00;;
15067;SDS011;7633;60.024;18.770;2022-10-22T15:19:45;8.43;;;7.50;;
15067;SDS011;7633;60.024;18.770;2022-10-22T15:22:11;8.47;;;7.43;;
15067;SDS011;7633;60.024;18.770;2022-10-22T15:24:36;7.90;;;7.13;;
15067;SDS011;7633;60.024;18.770;2022-10-22T15:27:02;8.47;;;7.67;;
15067;SDS011;7633;60.024;18.770;2022-10-22T15:29:28;7.33;;;6.63;;
15067;SDS011;7633;60.024;18.770;2022-10-22T15:31:55;8.20;;;7.40;;
15067;SDS011;7633;60.024;18.770;2022-10-22T15:34:27;8.30;;;7.43;;
15067;SDS011;7633;60.024;18.770;2022-10-22T15:36:54;9.37;;;7.70;;
15067;SDS011;7633;60.024;18.770;2022-10-22T15:39:20;8.87;;;8.00;;
15067;SDS011;7633;60.024;18.770;2022-10-22T15:41:47;9.07;;;8.20;;
15067;SDS011;7633;60.024;18.770;2022-10-22T15:44:17;9.27;;;8.20;;
15067;SDS011;7633;60.024;18.770;2022-10-22T15:46:42;6.90;;;6.27;;
15067;SDS011;7633;60.024;18.770;2022-10-22T15:49:08;7.67;;;6.87;;
15067;SDS011;7633;60.024;18.770;2022-10-22T15:51:33;7.30;;;6.60;;
15067;SDS011;7633;60.024;18.770;2022-10-22T15:53:58;7.47;;;6.67;;
15067;SDS011;7633;60.024;18.770;2022-10-22T15:56:25;7.13;;;6.43;;
15067;SDS011;7633;60.024;18.770;2022-10-22T15:58:52;7.60;;;6.60;;
15067;SDS011;7633;60.024;18.770;2022-10-22T16:01:17;7.27;;;6.57;;
15067;SDS011;7633;60.024;18.770;2022-10-22T16:03:43;8.50;;;7.70;;
15067;SDS011;7633;60.024;18.770;2022-10-22T16:06:08;6.70;;;6.00;;
15067;SDS011;7633;60.024;18.770;2022-10-22T16:08:34;8.53;;;7.73;;
15067;SDS011;7633;60.024;18.770;2022-10-22T16:11:00;10.50;;;9.40;;
15067;SDS011;7633;60.024;18.770;2022-10-22T16:13:27;8.43;;;7.60;;
15067;SDS011;7633;60.024;18.770;2022-10-22T16:15:54;12.00;;;8.53;;
15067;SDS011;7633;60.024;18.770;2022-10-22T16:18:19;9.40;;;8.50;;
15067;SDS011;7633;60.024;18.770;2022-10-22T16:20:45;9.47;;;8.53;;
15067;SDS011;7633;60.024;18.770;2022-10-22T16:23:11;9.77;;;8.00;;
15067;SDS011;7633;60.024;18.770;2022-10-22T16:25:38;8.43;;;7.63;;
15067;SDS011;7633;60.024;18.770;2022-10-22T16:28:03;9.20;;;8.20;;
15067;SDS011;7633;60.024;18.770;2022-10-22T16:30:31;9.77;;;8.40;;
15067;SDS011;7633;60.024;18.770;2022-10-22T16:32:58;9.10;;;8.27;;
15067;SDS011;7633;60.024;18.770;2022-10-22T16:35:30;9.13;;;8.23;;
15067;SDS011;7633;60.024;18.770;2022-10-22T16:38:01;8.47;;;7.67;;
15067;SDS011;7633;60.024;18.770;2022-10-22T16:40:26;8.83;;;8.03;;